Time;durP1;ratioP1;P1;durP2;ratioP2;P2;SDS_P1;SDS_P2;PMS_P1;PMS_P2;Temp;Humidity;BMP_temperature;BMP_pressure;BME280_temperature;BME280_humidity;BME280_pressure;Samples;Min_cycle;Max_cycle;Signal;HPM_P1;HPM_P2
2022/07/08 00:00:51;;;;;;;10.00;1.40;;;;;;;;;;5011731;28;20026;-73
2022/07/08 00:03:18;;;;;;;14.40;1.88;;;;;;;;;;5011869;28;20110;-73
2022/07/08 00:05:44;;;;;;;12.43;1.50;;;;;;;;;;5011645;28;20021;-73
2022/07/08 00:08:10;;;;;;;13.80;1.45;;;;;;;;;;5011621;28;20033;-73
2022/07/08 00:10:36;;;;;;;11.18;1.65;;;;;;;;;;5015637;28;20030;-73
2022/07/08 00:13:03;;;;;;;8.63;1.45;;;;;;;;;;5015588;28;20030;-73
2022/07/08 00:15:30;;;;;;;10.88;1.70;;;;;;;;;;5015135;28;20021;-73
2022/07/08 00:17:56;;;;;;;11.85;1.52;;;;;;;;;;5015152;28;20014;-73
2022/07/08 00:20:22;;;;;;;7.53;1.38;;;;;;;;;;5015078;28;20337;-73
2022/07/08 00:22:48;;;;;;;12.15;1.70;;;;;;;;;;5015252;28;20058;-73
2022/07/08 00:25:14;;;;;;;6.25;1.42;;;;;;;;;;5015253;28;20057;-73
2022/07/08 00:27:40;;;;;;;10.93;1.70;;;;;;;;;;5015223;28;20077;-73
2022/07/08 00:30:06;;;;;;;4.78;1.38;;;;;;;;;;5014795;28;20092;-73
2022/07/08 00:32:32;;;;;;;9.68;1.85;;;;;;;;;;5015027;28;20465;-73
2022/07/08 00:34:58;;;;;;;6.80;1.60;;;;;;;;;;5014819;28;20072;-73
2022/07/08 00:37:24;;;;;;;11.10;1.67;;;;;;;;;;5015100;28;20466;-73
2022/07/08 00:39:50;;;;;;;9.20;1.58;;;;;;;;;;5014801;28;20108;-73
2022/07/08 00:42:16;;;;;;;9.93;1.50;;;;;;;;;;5014934;28;20026;-73
2022/07/08 00:44:43;;;;;;;9.82;1.85;;;;;;;;;;5013439;28;20038;-73
2022/07/08 00:47:09;;;;;;;7.85;1.60;;;;;;;;;;5014661;28;20037;-73
2022/07/08 00:49:35;;;;;;;6.68;1.40;;;;;;;;;;5014791;28;20084;-73
2022/07/08 00:52:01;;;;;;;6.50;2.03;;;;;;;;;;5029837;28;20515;-73
2022/07/08 00:54:27;;;;;;;9.65;1.60;;;;;;;;;;5014708;28;20101;-73
2022/07/08 00:56:54;;;;;;;5.82;1.40;;;;;;;;;;5014674;28;20026;-73
2022/07/08 00:59:21;;;;;;;9.23;1.60;;;;;;;;;;5014638;28;20072;-73
2022/07/08 01:01:47;;;;;;;8.98;2.25;;;;;;;;;;5014346;28;20334;-73
2022/07/08 01:04:13;;;;;;;4.95;1.38;;;;;;;;;;5014489;28;20445;-73
2022/07/08 01:06:39;;;;;;;8.57;1.98;;;;;;;;;;5014247;28;20030;-73
2022/07/08 01:09:06;;;;;;;7.28;1.52;;;;;;;;;;5031539;28;20021;-73
2022/07/08 01:11:32;;;;;;;14.27;1.80;;;;;;;;;;5034550;28;20432;-73
2022/07/08 01:13:58;;;;;;;8.90;1.35;;;;;;;;;;5034109;28;20373;-73
2022/07/08 01:16:24;;;;;;;9.13;2.45;;;;;;;;;;5033832;28;20022;-73
2022/07/08 01:18:51;;;;;;;8.15;1.70;;;;;;;;;;5014320;28;20117;-73
2022/07/08 01:21:17;;;;;;;8.80;2.25;;;;;;;;;;5012838;28;20022;-73
2022/07/08 01:23:43;;;;;;;11.25;2.00;;;;;;;;;;5014201;28;20030;-73
2022/07/08 01:26:13;;;;;;;7.40;1.63;;;;;;;;;;5014217;28;20026;-73
2022/07/08 01:28:39;;;;;;;11.90;2.28;;;;;;;;;;5014286;28;20072;-73
2022/07/08 01:31:06;;;;;;;8.80;1.70;;;;;;;;;;5013863;28;20120;-73
2022/07/08 01:33:32;;;;;;;10.57;1.75;;;;;;;;;;5013940;28;20037;-73
2022/07/08 01:35:58;;;;;;;7.60;2.03;;;;;;;;;;5013834;28;20539;-73
2022/07/08 01:38:24;;;;;;;9.82;1.80;;;;;;;;;;5014035;28;20034;-73
2022/07/08 01:40:50;;;;;;;4.65;1.90;;;;;;;;;;5013935;28;20599;-74
2022/07/08 01:43:16;;;;;;;13.40;1.80;;;;;;;;;;5014001;28;20029;-73
2022/07/08 01:45:42;;;;;;;9.95;1.80;;;;;;;;;;5013615;28;20057;-73
2022/07/08 01:48:08;;;;;;;6.38;1.80;;;;;;;;;;5013673;28;20025;-73
2022/07/08 01:50:34;;;;;;;7.40;1.70;;;;;;;;;;5013608;28;20021;-73
2022/07/08 01:53:01;;;;;;;8.25;1.80;;;;;;;;;;5013699;28;20547;-73
2022/07/08 01:55:27;;;;;;;10.60;1.63;;;;;;;;;;5013666;28;20022;-73
2022/07/08 01:57:53;;;;;;;7.25;1.52;;;;;;;;;;5013695;28;20034;-73
2022/07/08 02:00:19;;;;;;;9.90;2.03;;;;;;;;;;5013422;28;20054;-73
2022/07/08 02:02:45;;;;;;;6.88;1.70;;;;;;;;;;5013948;28;20456;-73
2022/07/08 02:05:11;;;;;;;8.35;1.90;;;;;;;;;;5013397;28;20038;-73
2022/07/08 02:07:38;;;;;;;7.38;1.58;;;;;;;;;;5018967;28;20029;-73
2022/07/08 02:10:05;;;;;;;9.48;1.98;;;;;;;;;;5031495;28;20123;-73
2022/07/08 02:12:31;;;;;;;17.17;2.20;;;;;;;;;;5033090;28;20383;-73
2022/07/08 02:15:07;;;;;;;9.48;1.83;;;;;;;;;;5033171;28;20152;-73
2022/07/08 02:17:36;;;;;;;10.60;1.60;;;;;;;;;;5025639;28;20029;-73
2022/07/08 02:20:04;;;;;;;5.68;1.63;;;;;;;;;;5013034;28;20030;-73
2022/07/08 02:22:30;;;;;;;10.85;1.65;;;;;;;;;;5013320;28;20018;-73
2022/07/08 02:24:56;;;;;;;14.05;1.80;;;;;;;;;;5012982;28;20491;-73
2022/07/08 02:27:22;;;;;;;12.55;1.95;;;;;;;;;;5012998;28;20034;-73
2022/07/08 02:29:48;;;;;;;15.30;1.95;;;;;;;;;;5012715;28;20041;-73
2022/07/08 02:32:15;;;;;;;7.65;1.70;;;;;;;;;;5012560;28;20033;-73
2022/07/08 02:34:41;;;;;;;9.15;1.88;;;;;;;;;;5012914;28;20092;-73
2022/07/08 02:37:07;;;;;;;16.98;2.25;;;;;;;;;;5012905;28;20026;-73
2022/07/08 02:39:33;;;;;;;11.68;1.92;;;;;;;;;;5012859;28;20026;-73
2022/07/08 02:41:59;;;;;;;8.25;2.17;;;;;;;;;;5012794;28;20030;-73
2022/07/08 02:44:25;;;;;;;10.00;1.92;;;;;;;;;;5012814;28;20209;-73
2022/07/08 02:46:51;;;;;;;7.78;1.88;;;;;;;;;;5012799;28;20140;-73
2022/07/08 02:49:17;;;;;;;9.68;2.13;;;;;;;;;;5012654;28;20022;-73
2022/07/08 02:51:43;;;;;;;10.85;2.03;;;;;;;;;;5012622;28;20044;-73
2022/07/08 02:54:09;;;;;;;9.73;1.83;;;;;;;;;;5012674;28;20453;-73
2022/07/08 02:56:35;;;;;;;12.45;2.17;;;;;;;;;;5012669;28;20017;-73
2022/07/08 02:59:02;;;;;;;5.78;2.13;;;;;;;;;;5012487;28;20061;-73
2022/07/08 03:01:28;;;;;;;11.73;1.85;;;;;;;;;;5012401;28;20041;-73
2022/07/08 03:03:54;;;;;;;12.65;1.98;;;;;;;;;;5012616;28;20383;-73
2022/07/08 03:06:20;;;;;;;8.57;1.60;;;;;;;;;;5012358;28;20448;-73
2022/07/08 03:08:47;;;;;;;10.82;2.15;;;;;;;;;;5027136;28;20022;-73
2022/07/08 03:11:13;;;;;;;13.95;2.30;;;;;;;;;;5030547;28;20458;-73
2022/07/08 03:13:39;;;;;;;9.40;2.22;;;;;;;;;;5032081;28;20449;-73
2022/07/08 03:16:06;;;;;;;12.75;2.05;;;;;;;;;;5031866;28;20028;-73
2022/07/08 03:18:32;;;;;;;8.90;1.95;;;;;;;;;;5016648;28;20066;-73
2022/07/08 03:20:58;;;;;;;11.63;1.90;;;;;;;;;;5012037;28;20084;-73
2022/07/08 03:23:24;;;;;;;10.57;2.22;;;;;;;;;;5012322;28;20429;-73
2022/07/08 03:25:50;;;;;;;15.10;2.00;;;;;;;;;;5012120;28;20038;-73
2022/07/08 03:28:16;;;;;;;13.65;2.15;;;;;;;;;;5011992;28;20104;-73
2022/07/08 03:30:42;;;;;;;14.80;2.17;;;;;;;;;;5012006;28;20042;-73
2022/07/08 03:33:08;;;;;;;14.10;2.33;;;;;;;;;;5011905;28;20436;-73
2022/07/08 03:35:34;;;;;;;14.27;2.92;;;;;;;;;;5012077;28;20029;-73
2022/07/08 03:38:01;;;;;;;7.63;2.30;;;;;;;;;;5010931;28;20387;-73
2022/07/08 03:43:11;;;;;;;9.23;2.47;;;;;;;;;;5012224;28;20042;-73
2022/07/08 03:45:37;;;;;;;8.00;2.22;;;;;;;;;;5015834;28;20432;-73
2022/07/08 03:48:04;;;;;;;14.30;2.30;;;;;;;;;;5016307;28;20030;-73
2022/07/08 03:50:30;;;;;;;12.60;2.38;;;;;;;;;;5015913;28;20501;-73
2022/07/08 03:52:56;;;;;;;13.48;2.38;;;;;;;;;;5015793;28;20152;-73
2022/07/08 03:55:23;;;;;;;14.68;2.80;;;;;;;;;;5015943;28;20084;-73
2022/07/08 03:57:50;;;;;;;10.18;2.13;;;;;;;;;;5016002;28;20054;-73
2022/07/08 04:00:16;;;;;;;13.10;2.63;;;;;;;;;;5030798;28;20574;-74
2022/07/08 04:02:42;;;;;;;15.60;2.85;;;;;;;;;;5016014;28;20097;-73
2022/07/08 04:05:08;;;;;;;9.05;2.00;;;;;;;;;;5015752;28;20022;-73
2022/07/08 04:07:34;;;;;;;9.93;2.65;;;;;;;;;;5020664;28;20471;-73
2022/07/08 04:10:01;;;;;;;12.13;2.90;;;;;;;;;;5035483;28;20091;-73
2022/07/08 04:12:27;;;;;;;8.90;2.30;;;;;;;;;;5035369;28;20468;-73
2022/07/08 04:14:53;;;;;;;16.58;2.17;;;;;;;;;;5035511;28;20033;-73
2022/07/08 04:17:19;;;;;;;6.93;2.00;;;;;;;;;;5029598;28;20104;-73
2022/07/08 04:19:45;;;;;;;13.73;2.22;;;;;;;;;;5015495;28;20030;-73
2022/07/08 04:22:11;;;;;;;13.98;2.33;;;;;;;;;;5015465;28;20026;-73
2022/07/08 04:24:37;;;;;;;13.95;2.53;;;;;;;;;;5015551;28;20056;-73
2022/07/08 04:27:03;;;;;;;11.73;2.03;;;;;;;;;;5015377;28;20069;-73
2022/07/08 04:29:29;;;;;;;12.35;2.40;;;;;;;;;;5015179;28;20042;-73
2022/07/08 04:31:55;;;;;;;16.88;2.88;;;;;;;;;;5015151;28;20034;-73
2022/07/08 04:34:21;;;;;;;13.40;2.45;;;;;;;;;;5015161;28;20101;-73
2022/07/08 04:36:47;;;;;;;11.30;2.83;;;;;;;;;;5015113;28;20026;-73
2022/07/08 04:39:13;;;;;;;14.40;2.10;;;;;;;;;;5015227;28;20072;-73
2022/07/08 04:41:39;;;;;;;11.23;2.17;;;;;;;;;;5015179;28;20022;-73
2022/07/08 04:44:05;;;;;;;14.88;2.42;;;;;;;;;;5015121;28;20461;-73
2022/07/08 04:46:31;;;;;;;13.07;2.13;;;;;;;;;;5014834;28;20065;-73
2022/07/08 04:48:57;;;;;;;8.88;2.10;;;;;;;;;;5015077;28;20092;-74
2022/07/08 04:51:23;;;;;;;15.60;2.15;;;;;;;;;;5014785;28;20022;-73
2022/07/08 04:53:49;;;;;;;14.93;3.03;;;;;;;;;;5014994;28;20018;-73
2022/07/08 04:56:15;;;;;;;9.68;2.17;;;;;;;;;;5014872;28;20403;-73
2022/07/08 04:58:41;;;;;;;12.07;2.38;;;;;;;;;;5014789;28;20025;-73
2022/07/08 05:01:07;;;;;;;16.27;2.65;;;;;;;;;;5014582;28;20026;-73
2022/07/08 05:03:34;;;;;;;12.35;2.38;;;;;;;;;;5014926;28;20034;-73
2022/07/08 05:06:00;;;;;;;9.45;2.17;;;;;;;;;;5014512;28;20033;-74
2022/07/08 05:08:26;;;;;;;9.95;2.28;;;;;;;;;;5033100;28;20026;-74
2022/07/08 05:10:52;;;;;;;6.60;1.98;;;;;;;;;;5034682;28;20383;-73
2022/07/08 05:13:18;;;;;;;15.70;2.72;;;;;;;;;;5034299;28;20056;-74
2022/07/08 05:15:44;;;;;;;12.30;2.50;;;;;;;;;;5034290;28;20101;-74
2022/07/08 05:18:10;;;;;;;9.95;2.40;;;;;;;;;;5021772;28;20026;-74
2022/07/08 05:20:36;;;;;;;13.05;3.53;;;;;;;;;;5014312;28;20026;-74
2022/07/08 05:23:03;;;;;;;7.18;1.83;;;;;;;;;;5014655;28;20532;-74
2022/07/08 05:25:29;;;;;;;8.55;2.05;;;;;;;;;;5014171;28;20053;-74
2022/07/08 05:27:55;;;;;;;13.13;2.20;;;;;;;;;;5014258;28;20041;-74
2022/07/08 05:30:21;;;;;;;11.32;2.55;;;;;;;;;;5014030;28;20046;-74
2022/07/08 05:32:47;;;;;;;13.02;2.45;;;;;;;;;;5014195;28;20029;-74
2022/07/08 05:35:13;;;;;;;14.68;2.08;;;;;;;;;;5013989;28;20140;-74
2022/07/08 05:37:39;;;;;;;12.93;2.22;;;;;;;;;;5014227;28;20132;-74
2022/07/08 05:40:06;;;;;;;10.27;1.65;;;;;;;;;;5013930;28;20030;-74
2022/07/08 05:42:32;;;;;;;13.23;1.70;;;;;;;;;;5014015;28;20115;-74
2022/07/08 05:44:58;;;;;;;10.88;2.00;;;;;;;;;;5013881;28;20037;-74
2022/07/08 05:47:24;;;;;;;9.40;2.13;;;;;;;;;;5013974;28;20030;-74
2022/07/08 05:49:50;;;;;;;13.50;1.85;;;;;;;;;;5013784;28;20030;-74
2022/07/08 05:52:16;;;;;;;9.90;1.90;;;;;;;;;;5012432;28;20360;-74
2022/07/08 05:54:48;;;;;;;12.55;1.95;;;;;;;;;;5013784;28;20026;-74
2022/07/08 05:57:14;;;;;;;9.10;1.83;;;;;;;;;;5013841;28;20018;-73
2022/07/08 05:59:41;;;;;;;13.88;1.67;;;;;;;;;;5013538;28;20091;-73
2022/07/08 06:02:07;;;;;;;8.35;1.70;;;;;;;;;;5013570;28;20034;-74
2022/07/08 06:04:33;;;;;;;17.70;3.33;;;;;;;;;;5013747;28;20041;-73
2022/07/08 06:06:59;;;;;;;15.93;1.92;;;;;;;;;;5012875;28;20022;-74
2022/07/08 06:09:25;;;;;;;10.30;2.20;;;;;;;;;;5033085;28;20048;-74
2022/07/08 06:11:51;;;;;;;12.95;2.15;;;;;;;;;;5033164;28;20171;-74
2022/07/08 06:14:18;;;;;;;13.55;2.15;;;;;;;;;;5033232;28;20427;-74
2022/07/08 06:16:47;;;;;;;12.23;1.92;;;;;;;;;;5032189;28;20105;-73
2022/07/08 06:19:13;;;;;;;10.43;2.00;;;;;;;;;;5013343;28;20037;-73
2022/07/08 06:21:39;;;;;;;11.57;2.00;;;;;;;;;;5013269;28;20041;-73
2022/07/08 06:24:05;;;;;;;13.70;1.80;;;;;;;;;;5013211;28;20030;-74
2022/07/08 06:26:31;;;;;;;15.20;2.58;;;;;;;;;;5013093;28;20026;-74
2022/07/08 06:28:57;;;;;;;14.20;1.98;;;;;;;;;;5012972;28;20487;-74
2022/07/08 06:31:23;;;;;;;9.95;1.80;;;;;;;;;;5012836;28;20119;-74
2022/07/08 06:33:56;;;;;;;7.28;1.58;;;;;;;;;;5012937;28;20020;-74
2022/07/08 06:36:22;;;;;;;11.98;2.20;;;;;;;;;;5012873;28;20068;-74
2022/07/08 06:38:48;;;;;;;9.45;1.80;;;;;;;;;;5013028;28;20030;-74
2022/07/08 06:41:14;;;;;;;10.23;2.05;;;;;;;;;;5012794;28;20036;-74
2022/07/08 06:43:40;;;;;;;10.48;1.98;;;;;;;;;;5012968;28;20102;-74
2022/07/08 06:46:06;;;;;;;14.90;1.90;;;;;;;;;;5012567;28;20110;-74
2022/07/08 06:48:32;;;;;;;16.42;2.17;;;;;;;;;;5012752;28;20107;-74
2022/07/08 06:50:58;;;;;;;10.45;2.05;;;;;;;;;;5012508;28;20341;-73
2022/07/08 06:53:25;;;;;;;12.55;2.67;;;;;;;;;;5012871;28;20026;-73
2022/07/08 06:55:51;;;;;;;13.05;2.20;;;;;;;;;;5012564;28;20026;-74
2022/07/08 06:58:17;;;;;;;14.20;2.33;;;;;;;;;;5012650;28;20042;-74
2022/07/08 07:00:43;;;;;;;13.30;1.65;;;;;;;;;;5012474;28;20108;-74
2022/07/08 07:03:09;;;;;;;14.10;2.00;;;;;;;;;;5027674;28;20044;-74
2022/07/08 07:05:35;;;;;;;12.75;2.22;;;;;;;;;;5012375;28;20030;-74
2022/07/08 07:08:01;;;;;;;17.10;2.33;;;;;;;;;;5012546;28;20456;-74
2022/07/08 07:10:27;;;;;;;15.68;3.30;;;;;;;;;;5012493;28;20049;-73
2022/07/08 07:12:53;;;;;;;10.50;1.70;;;;;;;;;;5012580;28;20092;-73
2022/07/08 07:15:19;;;;;;;10.13;1.80;;;;;;;;;;5012304;28;20022;-73
2022/07/08 07:17:45;;;;;;;16.45;2.85;;;;;;;;;;5011781;28;20018;-73
2022/07/08 07:20:12;;;;;;;9.10;1.60;;;;;;;;;;5011743;28;20068;-74
2022/07/08 07:22:38;;;;;;;9.63;1.67;;;;;;;;;;5012210;28;20042;-73
2022/07/08 07:25:04;;;;;;;14.95;1.80;;;;;;;;;;5012282;28;20026;-74
2022/07/08 07:27:30;;;;;;;9.88;1.35;;;;;;;;;;5012184;28;20026;-73
2022/07/08 07:29:56;;;;;;;6.20;1.17;;;;;;;;;;5011954;28;20050;-73
2022/07/08 07:32:22;;;;;;;11.23;1.50;;;;;;;;;;5012127;28;20030;-74
2022/07/08 07:34:48;;;;;;;13.25;1.85;;;;;;;;;;5012134;28;20430;-74
2022/07/08 07:37:14;;;;;;;13.20;1.73;;;;;;;;;;5011945;28;20104;-74
2022/07/08 07:39:40;;;;;;;8.75;1.60;;;;;;;;;;5012203;28;20491;-74
2022/07/08 07:42:07;;;;;;;12.18;1.55;;;;;;;;;;5012224;28;20038;-73
2022/07/08 07:44:33;;;;;;;8.30;1.90;;;;;;;;;;5012285;28;20037;-73
2022/07/08 07:46:59;;;;;;;8.38;1.60;;;;;;;;;;5012302;28;20469;-73
2022/07/08 07:49:25;;;;;;;10.35;1.70;;;;;;;;;;5011883;28;20081;-74
2022/07/08 07:51:51;;;;;;;8.48;2.05;;;;;;;;;;5011967;28;20026;-74
2022/07/08 07:54:17;;;;;;;13.95;1.70;;;;;;;;;;5012168;28;20091;-74
2022/07/08 07:56:43;;;;;;;10.15;1.85;;;;;;;;;;5011868;28;20457;-73
2022/07/08 07:59:09;;;;;;;10.10;1.58;;;;;;;;;;5011994;28;20437;-74
2022/07/08 08:01:35;;;;;;;16.05;1.80;;;;;;;;;;5011836;28;20036;-73
2022/07/08 08:04:01;;;;;;;13.40;1.80;;;;;;;;;;5011977;28;20030;-73
2022/07/08 08:06:28;;;;;;;8.88;1.35;;;;;;;;;;5011720;28;20022;-74
2022/07/08 08:08:56;;;;;;;10.02;1.48;;;;;;;;;;5027455;28;20048;-74
2022/07/08 08:11:22;;;;;;;10.38;1.73;;;;;;;;;;5031914;28;20152;-74
2022/07/08 08:13:48;;;;;;;8.55;1.67;;;;;;;;;;5031514;28;20057;-74
2022/07/08 08:16:14;;;;;;;12.85;2.10;;;;;;;;;;5031250;28;20028;-74
2022/07/08 08:18:40;;;;;;;12.80;1.77;;;;;;;;;;5014952;28;20473;-74
2022/07/08 08:21:06;;;;;;;15.80;2.08;;;;;;;;;;5011515;28;20088;-74
2022/07/08 08:23:32;;;;;;;16.17;1.67;;;;;;;;;;5011831;28;20045;-74
2022/07/08 08:25:58;;;;;;;10.82;1.63;;;;;;;;;;5011662;28;20030;-74
2022/07/08 08:28:24;;;;;;;6.18;1.38;;;;;;;;;;5011784;28;20037;-74
2022/07/08 08:30:50;;;;;;;13.40;1.40;;;;;;;;;;5013647;28;20049;-73
2022/07/08 08:33:16;;;;;;;11.73;1.50;;;;;;;;;;5015278;28;20030;-74
2022/07/08 08:35:42;;;;;;;9.02;1.40;;;;;;;;;;5015113;28;20036;-74
2022/07/08 08:38:08;;;;;;;7.90;1.20;;;;;;;;;;5015179;28;20030;-74
2022/07/08 08:40:34;;;;;;;5.25;0.98;;;;;;;;;;5014995;28;20061;-74
2022/07/08 08:43:01;;;;;;;9.77;1.65;;;;;;;;;;5015097;28;20028;-74
2022/07/08 08:45:27;;;;;;;8.15;1.95;;;;;;;;;;5014669;28;20017;-74
2022/07/08 08:47:53;;;;;;;9.82;2.20;;;;;;;;;;5015144;28;20034;-73
2022/07/08 08:53:06;;;;;;;8.30;1.40;;;;;;;;;;5014891;28;20053;-74
2022/07/08 08:55:33;;;;;;;8.75;1.88;;;;;;;;;;5014632;28;20026;-74
2022/07/08 08:58:06;;;;;;;9.70;1.77;;;;;;;;;;5014810;28;20420;-74
2022/07/08 09:00:32;;;;;;;8.43;1.27;;;;;;;;;;5014605;28;20491;-74
2022/07/08 09:02:59;;;;;;;7.07;1.20;;;;;;;;;;5014674;28;20049;-74
2022/07/08 09:05:26;;;;;;;11.98;1.92;;;;;;;;;;5013203;28;20044;-74
2022/07/08 09:07:52;;;;;;;5.43;1.30;;;;;;;;;;5013331;28;20050;-74
2022/07/08 09:10:19;;;;;;;9.57;1.42;;;;;;;;;;5014640;28;20037;-74
2022/07/08 09:13:04;;;;;;;7.32;1.55;;;;;;;;;;5014699;28;20357;-74
2022/07/08 09:15:30;;;;;;;10.85;1.65;;;;;;;;;;5014266;28;20044;-74
2022/07/08 09:17:57;;;;;;;5.10;1.10;;;;;;;;;;5014357;28;20104;-74
2022/07/08 09:20:23;;;;;;;8.27;1.30;;;;;;;;;;5014083;28;20065;-74
2022/07/08 09:22:49;;;;;;;11.10;1.50;;;;;;;;;;5014429;28;20053;-73
2022/07/08 09:25:15;;;;;;;5.47;1.35;;;;;;;;;;5014281;28;20092;-74
2022/07/08 09:27:41;;;;;;;6.13;1.35;;;;;;;;;;5014306;28;20503;-74
2022/07/08 09:30:08;;;;;;;5.88;1.10;;;;;;;;;;5013788;28;20042;-74
2022/07/08 09:32:35;;;;;;;9.02;1.38;;;;;;;;;;5014036;28;20488;-74
2022/07/08 09:35:01;;;;;;;6.93;1.23;;;;;;;;;;5029185;28;20432;-74
2022/07/08 09:37:27;;;;;;;6.53;1.52;;;;;;;;;;5014192;28;20018;-74
2022/07/08 09:39:54;;;;;;;11.07;1.50;;;;;;;;;;5014072;28;20033;-74
2022/07/08 09:42:20;;;;;;;5.53;1.05;;;;;;;;;;5013149;28;20104;-74
2022/07/08 09:44:53;;;;;;;8.95;1.50;;;;;;;;;;5013824;28;20032;-74
2022/07/08 09:47:19;;;;;;;9.02;1.70;;;;;;;;;;5013795;28;20029;-74
2022/07/08 09:49:47;;;;;;;10.27;1.85;;;;;;;;;;5013698;28;20030;-74
2022/07/08 09:52:23;;;;;;;5.93;1.80;;;;;;;;;;5013791;28;20577;-74
2022/07/08 09:55:07;;;;;;;6.05;1.45;;;;;;;;;;5013824;28;20460;-74
2022/07/08 09:57:33;;;;;;;5.32;1.25;;;;;;;;;;5013798;28;20498;-74
2022/07/08 09:59:59;;;;;;;11.40;2.17;;;;;;;;;;5013738;28;20464;-74
2022/07/08 10:02:25;;;;;;;7.65;1.45;;;;;;;;;;5013667;28;20037;-74
2022/07/08 10:04:52;;;;;;;5.10;1.27;;;;;;;;;;5013658;28;20030;-74
2022/07/08 10:07:18;;;;;;;7.75;2.08;;;;;;;;;;5016014;28;20038;-74
2022/07/08 10:09:44;;;;;;;8.85;1.30;;;;;;;;;;5033196;28;20029;-74
2022/07/08 10:12:17;;;;;;;7.22;1.95;;;;;;;;;;5033293;28;20083;-74
2022/07/08 10:14:46;;;;;;;9.07;1.67;;;;;;;;;;5032995;28;20379;-74
2022/07/08 10:17:15;;;;;;;6.80;1.45;;;;;;;;;;5028508;28;20037;-74
2022/07/08 10:19:41;;;;;;;6.70;0.93;;;;;;;;;;5013252;28;20064;-74
2022/07/08 10:22:09;;;;;;;6.15;1.40;;;;;;;;;;5013134;28;20050;-74
2022/07/08 10:24:38;;;;;;;6.43;1.20;;;;;;;;;;5013011;28;20391;-74
2022/07/08 10:27:05;;;;;;;4.80;1.42;;;;;;;;;;5012941;28;20026;-74
2022/07/08 10:29:31;;;;;;;10.15;1.80;;;;;;;;;;5012836;28;20030;-74
2022/07/08 10:31:58;;;;;;;9.32;1.60;;;;;;;;;;5012811;28;20028;-74
2022/07/08 10:34:33;;;;;;;8.68;1.40;;;;;;;;;;5012850;28;20388;-74
2022/07/08 10:37:01;;;;;;;5.03;1.70;;;;;;;;;;5012740;28;20043;-74
2022/07/08 10:39:31;;;;;;;7.78;1.40;;;;;;;;;;5012768;28;20034;-74
2022/07/08 10:41:57;;;;;;;6.00;1.58;;;;;;;;;;5012934;28;20021;-74
2022/07/08 10:44:48;;;;;;;6.15;2.08;;;;;;;;;;5012697;28;20033;-74
2022/07/08 10:47:17;;;;;;;6.18;1.55;;;;;;;;;;5012760;28;20041;-74
2022/07/08 10:49:47;;;;;;;7.00;1.40;;;;;;;;;;5012628;28;20045;-74
2022/07/08 10:52:14;;;;;;;7.45;1.85;;;;;;;;;;5012674;28;20059;-74
2022/07/08 10:54:40;;;;;;;8.40;1.50;;;;;;;;;;5012774;28;20021;-74
2022/07/08 10:57:09;;;;;;;7.78;1.58;;;;;;;;;;5012656;28;20025;-74
2022/07/08 10:59:38;;;;;;;6.22;1.67;;;;;;;;;;5012708;28;20068;-74
2022/07/08 11:02:11;;;;;;;8.95;1.83;;;;;;;;;;5012578;28;20108;-74
2022/07/08 11:04:37;;;;;;;6.95;1.40;;;;;;;;;;5012567;28;20026;-74
2022/07/08 11:07:15;;;;;;;5.57;1.33;;;;;;;;;;5013099;28;20528;-74
2022/07/08 11:09:42;;;;;;;6.10;1.45;;;;;;;;;;5032143;28;20061;-74
2022/07/08 11:12:12;;;;;;;9.63;1.45;;;;;;;;;;5032205;28;20033;-74
2022/07/08 11:14:42;;;;;;;6.70;1.85;;;;;;;;;;5032155;28;20029;-74
2022/07/08 11:17:13;;;;;;;6.00;1.75;;;;;;;;;;5028021;28;20472;-74
2022/07/08 11:19:41;;;;;;;10.68;2.00;;;;;;;;;;5012235;28;20106;-74
2022/07/08 11:22:08;;;;;;;8.50;1.50;;;;;;;;;;5012241;28;20030;-74
2022/07/08 11:24:34;;;;;;;5.13;1.45;;;;;;;;;;5010854;28;20157;-74
2022/07/08 11:27:00;;;;;;;7.90;1.85;;;;;;;;;;5012160;28;20022;-74
2022/07/08 11:29:26;;;;;;;5.20;1.50;;;;;;;;;;5011879;28;20040;-74
2022/07/08 11:31:58;;;;;;;5.20;1.40;;;;;;;;;;5012076;28;20026;-74
2022/07/08 11:34:24;;;;;;;6.30;1.67;;;;;;;;;;5012053;28;20380;-74
2022/07/08 11:37:00;;;;;;;5.72;1.35;;;;;;;;;;5011975;28;20476;-74
2022/07/08 11:39:26;;;;;;;7.97;1.73;;;;;;;;;;5010752;28;20049;-74
2022/07/08 11:41:53;;;;;;;12.00;1.42;;;;;;;;;;5012124;28;20022;-74
2022/07/08 11:44:20;;;;;;;7.82;1.50;;;;;;;;;;5012180;28;20038;-74
2022/07/08 11:46:47;;;;;;;11.40;1.92;;;;;;;;;;5011649;28;20476;-74
2022/07/08 11:49:14;;;;;;;6.10;1.70;;;;;;;;;;5012050;28;20029;-74
2022/07/08 11:51:45;;;;;;;6.53;1.33;;;;;;;;;;5011915;28;20022;-74
2022/07/08 11:54:11;;;;;;;5.75;1.67;;;;;;;;;;5012013;28;20018;-74
2022/07/08 11:56:37;;;;;;;7.03;1.50;;;;;;;;;;5011996;28;20044;-74
2022/07/08 11:59:03;;;;;;;6.93;1.30;;;;;;;;;;5012042;28;20105;-73
2022/07/08 12:01:30;;;;;;;7.07;1.58;;;;;;;;;;5011695;28;20033;-74
2022/07/08 12:03:56;;;;;;;5.03;2.22;;;;;;;;;;5011962;28;20026;-74
2022/07/08 12:06:23;;;;;;;3.90;1.30;;;;;;;;;;5015025;28;20073;-74
2022/07/08 12:08:49;;;;;;;8.38;2.00;;;;;;;;;;5030979;28;20041;-74
2022/07/08 12:11:17;;;;;;;4.80;1.10;;;;;;;;;;5035733;28;20030;-74
2022/07/08 12:13:43;;;;;;;8.95;1.33;;;;;;;;;;5035687;28;20034;-74
2022/07/08 12:16:09;;;;;;;7.57;1.60;;;;;;;;;;5035374;28;20056;-74
2022/07/08 12:18:36;;;;;;;6.10;1.55;;;;;;;;;;5019449;28;20108;-74
2022/07/08 12:21:18;;;;;;;5.07;1.27;;;;;;;;;;5015265;28;20017;-74
2022/07/08 12:23:45;;;;;;;4.75;1.27;;;;;;;;;;5015346;28;20034;-74
2022/07/08 12:26:12;;;;;;;4.05;1.00;;;;;;;;;;5015377;28;20451;-74
2022/07/08 12:28:38;;;;;;;8.27;1.50;;;;;;;;;;5015327;28;20018;-74
2022/07/08 12:31:04;;;;;;;4.55;1.20;;;;;;;;;;5015048;28;20081;-74
2022/07/08 12:33:32;;;;;;;5.95;1.10;;;;;;;;;;5015452;28;20025;-74
2022/07/08 12:35:58;;;;;;;5.30;1.13;;;;;;;;;;5015243;28;20022;-74
2022/07/08 12:38:25;;;;;;;3.35;1.00;;;;;;;;;;5015314;28;20033;-74
2022/07/08 12:40:51;;;;;;;4.28;1.08;;;;;;;;;;5015097;28;20076;-74
2022/07/08 12:43:17;;;;;;;5.22;1.02;;;;;;;;;;5030187;28;20044;-74
2022/07/08 12:45:44;;;;;;;2.75;0.80;;;;;;;;;;5014723;28;20034;-74
2022/07/08 12:48:10;;;;;;;8.02;1.10;;;;;;;;;;5015288;28;20113;-74
2022/07/08 12:50:36;;;;;;;5.63;1.33;;;;;;;;;;5014905;28;20033;-74
2022/07/08 12:53:03;;;;;;;4.15;1.00;;;;;;;;;;5015140;28;20069;-74
2022/07/08 12:55:29;;;;;;;4.05;0.77;;;;;;;;;;5014887;28;20017;-74
2022/07/08 12:57:55;;;;;;;8.82;1.20;;;;;;;;;;5014991;28;20022;-74
2022/07/08 13:00:21;;;;;;;4.90;0.80;;;;;;;;;;5014657;28;20033;-74
2022/07/08 13:02:47;;;;;;;3.70;1.02;;;;;;;;;;5014924;28;20022;-74
2022/07/08 13:05:14;;;;;;;2.45;0.70;;;;;;;;;;5014599;28;20511;-74
2022/07/08 13:07:40;;;;;;;2.90;0.93;;;;;;;;;;5018781;28;20383;-74
2022/07/08 13:10:06;;;;;;;3.55;0.70;;;;;;;;;;5034388;28;20122;-74
2022/07/08 13:12:32;;;;;;;3.60;0.90;;;;;;;;;;5034351;28;20034;-74
2022/07/08 13:14:58;;;;;;;5.00;1.30;;;;;;;;;;5034164;28;20022;-74
2022/07/08 13:17:24;;;;;;;4.28;1.02;;;;;;;;;;5028013;28;20770;-74
2022/07/08 13:19:51;;;;;;;1.90;0.70;;;;;;;;;;5014365;28;20057;-74
2022/07/08 13:22:17;;;;;;;2.70;0.90;;;;;;;;;;5014310;28;20026;-74
2022/07/08 13:24:43;;;;;;;3.22;0.93;;;;;;;;;;5013191;28;20069;-74
2022/07/08 13:27:09;;;;;;;3.40;1.00;;;;;;;;;;5014265;28;20144;-74
2022/07/08 13:29:35;;;;;;;5.35;1.30;;;;;;;;;;5014041;28;20054;-74
2022/07/08 13:32:01;;;;;;;5.53;1.20;;;;;;;;;;5014046;28;20076;-74
2022/07/08 13:34:28;;;;;;;4.68;1.17;;;;;;;;;;5014132;28;20018;-74
2022/07/08 13:36:54;;;;;;;5.07;1.08;;;;;;;;;;5013866;28;20029;-74
2022/07/08 13:39:20;;;;;;;3.50;0.90;;;;;;;;;;5013989;28;20030;-74
2022/07/08 13:41:46;;;;;;;3.35;0.93;;;;;;;;;;5013932;28;20034;-74
2022/07/08 13:44:12;;;;;;;4.10;1.13;;;;;;;;;;5014030;28;20045;-74
2022/07/08 13:46:38;;;;;;;3.15;1.00;;;;;;;;;;5013461;28;20037;-74
2022/07/08 13:49:04;;;;;;;3.58;1.20;;;;;;;;;;5013558;28;20634;-74
2022/07/08 13:51:30;;;;;;;5.47;1.20;;;;;;;;;;5013439;28;20053;-75
2022/07/08 13:53:57;;;;;;;3.25;0.98;;;;;;;;;;5012241;28;20432;-75
2022/07/08 13:56:23;;;;;;;3.63;0.90;;;;;;;;;;5013653;28;20022;-74
2022/07/08 13:58:49;;;;;;;4.20;1.00;;;;;;;;;;5013815;28;20064;-74
2022/07/08 14:01:16;;;;;;;5.28;1.00;;;;;;;;;;5013373;28;20033;-74
2022/07/08 14:03:42;;;;;;;6.10;0.90;;;;;;;;;;5013586;28;20030;-74
2022/07/08 14:06:08;;;;;;;3.92;1.00;;;;;;;;;;5013497;28;20026;-74
2022/07/08 14:08:35;;;;;;;4.07;1.20;;;;;;;;;;5026403;28;20476;-74
2022/07/08 14:11:02;;;;;;;9.10;1.20;;;;;;;;;;5033442;28;20471;-74
2022/07/08 14:13:28;;;;;;;7.22;1.20;;;;;;;;;;5031902;28;20108;-74
2022/07/08 14:15:54;;;;;;;5.30;1.10;;;;;;;;;;5032934;28;20072;-74
2022/07/08 14:18:20;;;;;;;5.50;1.33;;;;;;;;;;5019245;28;20057;-74
2022/07/08 14:20:46;;;;;;;7.40;0.98;;;;;;;;;;5012991;28;20499;-74
2022/07/08 14:23:12;;;;;;;8.43;1.20;;;;;;;;;;5013266;28;20038;-74
2022/07/08 14:25:38;;;;;;;6.43;1.73;;;;;;;;;;5013163;28;20080;-75
2022/07/08 14:28:04;;;;;;;7.22;1.48;;;;;;;;;;5012652;28;20036;-75
2022/07/08 14:30:31;;;;;;;3.65;1.20;;;;;;;;;;5012717;28;20065;-74
2022/07/08 14:32:57;;;;;;;6.07;1.60;;;;;;;;;;5013060;28;20025;-74
2022/07/08 14:35:23;;;;;;;4.45;1.30;;;;;;;;;;5012871;28;20022;-74
2022/07/08 14:37:49;;;;;;;7.53;1.42;;;;;;;;;;5012897;28;20037;-74
2022/07/08 14:40:15;;;;;;;4.55;1.08;;;;;;;;;;5012656;28;20109;-74